createdAt,value
2022-12-15T06:50:27.059Z,121.30
2022-12-15T06:53:29.659Z,126.60
2022-12-15T06:56:38.740Z,104.88
2022-12-15T06:59:42.622Z,126.10
2022-12-15T07:02:44.659Z,122.00
2022-12-15T07:06:02.749Z,114.25
2022-12-15T07:09:07.667Z,111.07
2022-12-15T07:15:12.449Z,98.97
2022-12-15T07:18:14.954Z,126.25
2022-12-15T07:21:18.409Z,114.40
2022-12-15T07:24:20.601Z,120.20
2022-12-15T07:27:23.324Z,120.80
2022-12-15T07:30:25.995Z,113.85
2022-12-15T07:33:28.404Z,109.30
2022-12-15T07:36:30.958Z,121.43
2022-12-15T07:39:32.942Z,123.68
2022-12-15T07:42:35.676Z,128.02
2022-12-15T07:45:37.594Z,117.85
2022-12-15T07:48:39.482Z,141.32
2022-12-15T07:51:41.595Z,117.40
2022-12-15T07:54:45.814Z,110.68
2022-12-15T07:57:48.156Z,115.90
2022-12-15T08:00:49.984Z,105.82
2022-12-15T08:03:51.844Z,116.55
2022-12-15T08:06:54.645Z,117.30
2022-12-15T08:09:56.401Z,112.60
2022-12-15T08:13:02.007Z,107.00
2022-12-15T08:16:03.982Z,119.80
2022-12-15T08:19:12.038Z,108.93
2022-12-15T08:22:15.584Z,117.32
2022-12-15T08:25:17.618Z,102.97
2022-12-15T08:28:19.591Z,99.07
2022-12-15T08:31:24.246Z,106.18
2022-12-15T08:34:26.260Z,105.18
2022-12-15T08:37:28.078Z,96.68
2022-12-15T08:40:30.069Z,107.20
2022-12-15T08:43:32.413Z,100.32
2022-12-15T08:46:35.023Z,114.38
2022-12-15T08:49:36.783Z,95.13
2022-12-15T08:52:50.765Z,99.95
2022-12-15T08:56:10.401Z,95.68
2022-12-15T08:59:15.095Z,100.45
2022-12-15T09:02:17.857Z,104.10
2022-12-15T09:05:20.253Z,107.55
2022-12-15T09:08:22.550Z,109.80
2022-12-15T09:11:25.420Z,114.97
2022-12-15T09:14:29.661Z,103.18
2022-12-15T09:17:31.797Z,120.47
2022-12-15T09:20:34.092Z,115.43
2022-12-15T09:23:37.207Z,115.10
2022-12-15T09:26:40.804Z,107.50
2022-12-15T09:29:42.550Z,101.53
2022-12-15T09:32:44.739Z,123.35
2022-12-15T09:35:54.422Z,103.60
2022-12-15T09:38:56.610Z,116.05
2022-12-15T09:42:00.975Z,104.40
2022-12-15T09:45:17.892Z,124.45
2022-12-15T09:48:22.011Z,121.43
2022-12-15T09:51:34.446Z,117.93
2022-12-15T09:54:36.385Z,116.38
2022-12-15T09:57:46.709Z,116.32
2022-12-15T10:00:56.590Z,105.82
2022-12-15T10:04:12.165Z,121.47
2022-12-15T10:07:25.981Z,126.53
2022-12-15T10:10:39.064Z,128.02
2022-12-15T10:13:58.065Z,121.25
2022-12-15T10:17:16.487Z,122.70
2022-12-15T10:20:27.175Z,128.85
2022-12-15T10:23:29.638Z,119.45
2022-12-15T10:26:35.331Z,115.53
2022-12-15T10:29:58.650Z,111.47
2022-12-15T10:33:11.870Z,120.72
2022-12-15T10:36:15.923Z,120.10
2022-12-15T10:39:18.062Z,130.77
2022-12-15T10:42:23.685Z,128.15
2022-12-15T10:45:40.066Z,135.13
2022-12-15T10:48:48.745Z,123.38
2022-12-15T10:52:24.179Z,115.53
2022-12-15T10:55:49.897Z,117.28
2022-12-15T10:59:29.750Z,116.75
2022-12-15T11:05:36.730Z,125.97
2022-12-15T11:08:42.118Z,116.72
2022-12-15T11:12:12.103Z,115.70
2022-12-15T11:15:38.870Z,112.13
2022-12-15T11:18:53.940Z,104.80
2022-12-15T11:22:03.561Z,112.72
2022-12-15T11:25:21.113Z,112.97
2022-12-15T11:28:44.001Z,102.50
2022-12-15T11:31:48.911Z,109.32
2022-12-15T11:34:51.269Z,112.05
2022-12-15T11:38:16.180Z,121.05
2022-12-15T11:41:42.057Z,111.30
2022-12-15T11:45:04.889Z,111.65
2022-12-15T11:48:27.280Z,113.05
2022-12-15T11:51:45.213Z,115.35
2022-12-15T11:54:55.602Z,109.75
2022-12-15T11:58:19.480Z,114.80
2022-12-15T12:01:55.492Z,105.72
2022-12-15T12:05:29.328Z,115.13
2022-12-15T12:09:00.624Z,108.78
2022-12-15T12:12:26.553Z,117.28
2022-12-15T12:15:41.499Z,111.80
2022-12-15T12:18:51.212Z,113.43
2022-12-15T12:21:59.282Z,120.22
2022-12-15T12:25:20.912Z,114.07
2022-12-15T12:28:29.909Z,117.00
2022-12-15T12:32:00.566Z,120.57
2022-12-15T12:35:33.486Z,107.82
2022-12-15T12:38:41.353Z,110.65
2022-12-15T12:42:09.384Z,110.10
2022-12-15T12:45:13.044Z,110.60
2022-12-15T12:48:30.427Z,98.88
2022-12-15T12:51:35.666Z,96.43
2022-12-15T12:54:37.457Z,96.90
2022-12-15T12:57:42.007Z,95.45
2022-12-15T13:01:10.633Z,98.05
2022-12-15T13:04:40.497Z,96.10
2022-12-15T13:07:42.308Z,97.60
2022-12-15T13:10:47.492Z,96.65
2022-12-15T13:13:53.369Z,95.30
2022-12-15T13:17:25.304Z,92.82
2022-12-15T13:20:30.592Z,97.03
2022-12-15T13:23:41.498Z,104.90
2022-12-15T13:30:08.020Z,93.90
2022-12-15T13:33:18.799Z,93.30
2022-12-15T13:36:40.521Z,96.95
2022-12-15T13:39:58.651Z,91.70
2022-12-15T13:43:23.567Z,105.97
2022-12-15T13:46:29.489Z,98.43
2022-12-15T13:49:37.222Z,97.50
2022-12-15T13:56:25.623Z,88.63
2022-12-15T13:59:42.513Z,94.13
2022-12-15T14:02:45.008Z,99.15
2022-12-15T14:05:56.971Z,95.55
2022-12-15T14:09:01.069Z,96.47
2022-12-15T14:12:06.554Z,96.63
2022-12-15T14:15:14.743Z,95.93
2022-12-15T14:18:37.585Z,88.53
2022-12-15T14:21:39.351Z,95.53
2022-12-15T14:24:46.076Z,101.40
2022-12-15T14:27:51.824Z,90.55
2022-12-15T14:30:53.710Z,93.85
2022-12-15T14:34:19.815Z,90.50
2022-12-15T14:37:21.639Z,86.35
2022-12-15T14:40:28.641Z,91.82
2022-12-15T14:43:39.088Z,91.57
2022-12-15T14:46:45.351Z,94.28
2022-12-15T14:49:48.607Z,100.85
2022-12-15T14:53:02.818Z,99.88
2022-12-15T14:56:30.381Z,94.13
2022-12-15T14:59:35.045Z,96.13
2022-12-15T15:02:38.742Z,101.03
2022-12-15T15:03:13.112Z,100.80
2022-12-15T15:05:44.355Z,100.65
2022-12-15T15:08:52.561Z,95.13
2022-12-15T15:12:01.285Z,97.95
2022-12-15T15:15:06.479Z,96.45
2022-12-15T15:18:15.584Z,107.65
2022-12-15T15:21:21.148Z,104.95
2022-12-15T15:24:29.698Z,97.07
2022-12-15T15:27:36.427Z,95.25
2022-12-15T15:31:00.617Z,96.10
2022-12-15T15:34:02.614Z,92.50
2022-12-15T15:37:16.507Z,105.65
2022-12-15T15:43:22.177Z,94.32
2022-12-15T15:46:26.910Z,89.15
2022-12-15T15:49:28.743Z,96.10
2022-12-15T15:52:32.007Z,90.05
2022-12-15T15:55:39.676Z,103.15
2022-12-15T15:58:43.821Z,91.57
2022-12-15T16:01:49.640Z,85.03
2022-12-15T16:04:51.694Z,93.40
2022-12-15T16:07:53.503Z,89.28
2022-12-15T16:10:55.519Z,92.82
2022-12-15T16:13:57.736Z,89.95
2022-12-15T16:17:00.050Z,94.95
2022-12-15T16:20:01.781Z,96.97
2022-12-15T16:23:11.758Z,93.53
2022-12-15T16:26:16.936Z,94.82
2022-12-15T16:29:20.742Z,93.85
2022-12-15T16:32:22.496Z,92.43
2022-12-15T16:35:26.217Z,82.93
2022-12-15T16:38:30.671Z,86.10
2022-12-15T16:41:33.219Z,88.88
2022-12-15T16:44:35.023Z,95.00
2022-12-15T16:47:36.871Z,90.00
2022-12-15T16:50:41.047Z,93.78
2022-12-15T16:53:43.462Z,88.15
2022-12-15T16:56:45.478Z,89.65
2022-12-15T16:59:47.367Z,89.43
